sensor_id;sensor_type;location;lat;lon;timestamp;temperature;humidity
4962;DHT22;2496;52.468;13.342;2024-03-06T00:01:57;3.70;99.90
4962;DHT22;2496;52.468;13.342;2024-03-06T00:04:24;3.60;99.90
4962;DHT22;2496;52.468;13.342;2024-03-06T00:06:52;3.60;99.90
4962;DHT22;2496;52.468;13.342;2024-03-06T00:09:21;3.50;99.90
4962;DHT22;2496;52.468;13.342;2024-03-06T00:11:48;3.50;99.90
4962;DHT22;2496;52.468;13.342;2024-03-06T00:14:16;3.50;99.90
4962;DHT22;2496;52.468;13.342;2024-03-06T00:16:43;3.50;99.90
4962;DHT22;2496;52.468;13.342;2024-03-06T09:12:02;3.50;99.90
4962;DHT22;2496;52.468;13.342;2024-03-06T09:14:31;8.90;99.90
4962;DHT22;2496;52.468;13.342;2024-03-06T09:16:59;9.00;99.90
4962;DHT22;2496;52.468;13.342;2024-03-06T09:19:26;9.20;99.90
4962;DHT22;2496;52.468;13.342;2024-03-06T09:21:53;9.20;99.90
4962;DHT22;2496;52.468;13.342;2024-03-06T09:24:21;9.20;99.90
4962;DHT22;2496;52.468;13.342;2024-03-06T09:26:49;9.00;99.90
4962;DHT22;2496;52.468;13.342;2024-03-06T09:29:16;8.90;99.90
4962;DHT22;2496;52.468;13.342;2024-03-06T09:31:43;8.70;99.90
4962;DHT22;2496;52.468;13.342;2024-03-06T09:34:11;8.50;99.90
4962;DHT22;2496;52.468;13.342;2024-03-06T09:36:40;8.20;99.90
4962;DHT22;2496;52.468;13.342;2024-03-06T09:39:10;8.00;99.90
4962;DHT22;2496;52.468;13.342;2024-03-06T09:41:37;7.90;99.90
4962;DHT22;2496;52.468;13.342;2024-03-06T09:44:06;7.80;99.90
4962;DHT22;2496;52.468;13.342;2024-03-06T09:46:34;7.80;99.90
4962;DHT22;2496;52.468;13.342;2024-03-06T09:49:02;7.80;99.90
4962;DHT22;2496;52.468;13.342;2024-03-06T09:51:31;7.70;99.90
4962;DHT22;2496;52.468;13.342;2024-03-06T09:53:58;7.70;99.90
4962;DHT22;2496;52.468;13.342;2024-03-06T09:56:25;7.60;99.90
4962;DHT22;2496;52.468;13.342;2024-03-06T09:58:52;7.70;99.90
4962;DHT22;2496;52.468;13.342;2024-03-06T10:01:21;7.80;99.90
4962;DHT22;2496;52.468;13.342;2024-03-06T10:03:50;7.80;99.90
4962;DHT22;2496;52.468;13.342;2024-03-06T10:06:17;7.90;99.90
4962;DHT22;2496;52.468;13.342;2024-03-06T10:08:46;7.90;99.90
4962;DHT22;2496;52.468;13.342;2024-03-06T10:11:15;7.80;99.90
4962;DHT22;2496;52.468;13.342;2024-03-06T10:13:44;7.80;99.90
4962;DHT22;2496;52.468;13.342;2024-03-06T10:16:11;7.70;99.90
4962;DHT22;2496;52.468;13.342;2024-03-06T10:18:39;7.70;99.90
4962;DHT22;2496;52.468;13.342;2024-03-06T10:21:07;7.50;99.90
4962;DHT22;2496;52.468;13.342;2024-03-06T10:23:34;7.50;99.90
4962;DHT22;2496;52.468;13.342;2024-03-06T10:26:07;7.30;99.90
4962;DHT22;2496;52.468;13.342;2024-03-06T10:28:34;7.20;99.90
4962;DHT22;2496;52.468;13.342;2024-03-06T10:31:05;7.30;99.90
4962;DHT22;2496;52.468;13.342;2024-03-06T10:33:34;7.40;99.90
4962;DHT22;2496;52.468;13.342;2024-03-06T10:36:01;7.50;99.90
4962;DHT22;2496;52.468;13.342;2024-03-06T10:38:31;7.70;99.90
4962;DHT22;2496;52.468;13.342;2024-03-06T10:41:04;7.90;99.90
4962;DHT22;2496;52.468;13.342;2024-03-06T10:43:34;8.00;99.90
4962;DHT22;2496;52.468;13.342;2024-03-06T10:46:06;8.00;99.90
4962;DHT22;2496;52.468;13.342;2024-03-06T10:48:34;7.90;99.90
4962;DHT22;2496;52.468;13.342;2024-03-06T10:51:02;7.80;99.90
4962;DHT22;2496;52.468;13.342;2024-03-06T10:53:31;7.60;99.90
4962;DHT22;2496;52.468;13.342;2024-03-06T10:55:59;7.50;99.90
4962;DHT22;2496;52.468;13.342;2024-03-06T10:58:28;7.40;99.90
4962;DHT22;2496;52.468;13.342;2024-03-06T11:00:57;7.50;99.90
4962;DHT22;2496;52.468;13.342;2024-03-06T11:03:25;7.40;99.90
4962;DHT22;2496;52.468;13.342;2024-03-06T11:05:56;7.50;99.90
4962;DHT22;2496;52.468;13.342;2024-03-06T11:08:23;7.60;99.90
4962;DHT22;2496;52.468;13.342;2024-03-06T11:10:51;7.70;99.90
4962;DHT22;2496;52.468;13.342;2024-03-06T11:13:24;7.90;99.90
4962;DHT22;2496;52.468;13.342;2024-03-06T11:15:57;8.00;99.90
4962;DHT22;2496;52.468;13.342;2024-03-06T11:18:44;8.00;99.90
4962;DHT22;2496;52.468;13.342;2024-03-06T11:21:30;8.00;99.90
4962;DHT22;2496;52.468;13.342;2024-03-06T11:24:19;8.10;99.90
4962;DHT22;2496;52.468;13.342;2024-03-06T11:26:50;8.10;99.90
4962;DHT22;2496;52.468;13.342;2024-03-06T11:29:18;8.00;99.90
4962;DHT22;2496;52.468;13.342;2024-03-06T11:32:05;7.90;99.90
4962;DHT22;2496;52.468;13.342;2024-03-06T11:34:34;7.80;99.90
4962;DHT22;2496;52.468;13.342;2024-03-06T11:37:04;7.70;99.90
4962;DHT22;2496;52.468;13.342;2024-03-06T11:39:37;7.60;99.90
4962;DHT22;2496;52.468;13.342;2024-03-06T11:42:05;7.60;99.90
4962;DHT22;2496;52.468;13.342;2024-03-06T11:44:34;7.70;99.90
4962;DHT22;2496;52.468;13.342;2024-03-06T11:47:04;7.80;99.90
4962;DHT22;2496;52.468;13.342;2024-03-06T11:49:32;7.80;99.90
4962;DHT22;2496;52.468;13.342;2024-03-06T11:52:01;8.00;99.90
4962;DHT22;2496;52.468;13.342;2024-03-06T11:54:30;8.10;99.90
4962;DHT22;2496;52.468;13.342;2024-03-06T11:56:59;8.20;99.90
4962;DHT22;2496;52.468;13.342;2024-03-06T11:59:27;8.30;99.90
4962;DHT22;2496;52.468;13.342;2024-03-06T12:01:55;8.30;99.90
4962;DHT22;2496;52.468;13.342;2024-03-06T12:04:24;8.20;99.90
4962;DHT22;2496;52.468;13.342;2024-03-06T12:06:51;8.20;99.90
4962;DHT22;2496;52.468;13.342;2024-03-06T12:09:19;8.10;99.90
4962;DHT22;2496;52.468;13.342;2024-03-06T12:11:47;8.20;99.90
4962;DHT22;2496;52.468;13.342;2024-03-06T12:14:14;8.30;99.90
4962;DHT22;2496;52.468;13.342;2024-03-06T12:16:43;8.40;99.90
4962;DHT22;2496;52.468;13.342;2024-03-06T12:19:10;8.40;99.90
4962;DHT22;2496;52.468;13.342;2024-03-06T12:21:39;8.40;99.90
4962;DHT22;2496;52.468;13.342;2024-03-06T12:24:07;8.60;99.90
4962;DHT22;2496;52.468;13.342;2024-03-06T12:26:35;8.70;99.90
4962;DHT22;2496;52.468;13.342;2024-03-06T12:29:07;8.70;99.90
4962;DHT22;2496;52.468;13.342;2024-03-06T12:31:35;8.80;99.90
4962;DHT22;2496;52.468;13.342;2024-03-06T12:34:03;8.70;99.90
4962;DHT22;2496;52.468;13.342;2024-03-06T12:36:31;8.70;99.90
4962;DHT22;2496;52.468;13.342;2024-03-06T12:39:03;8.70;99.90
4962;DHT22;2496;52.468;13.342;2024-03-06T12:41:38;8.90;99.90
4962;DHT22;2496;52.468;13.342;2024-03-06T12:44:05;9.00;99.90
4962;DHT22;2496;52.468;13.342;2024-03-06T12:46:33;8.90;99.90
4962;DHT22;2496;52.468;13.342;2024-03-06T12:49:00;8.80;99.90
4962;DHT22;2496;52.468;13.342;2024-03-06T12:51:27;8.80;99.90
4962;DHT22;2496;52.468;13.342;2024-03-06T12:53:54;8.80;99.90
4962;DHT22;2496;52.468;13.342;2024-03-06T12:56:22;8.80;99.90
4962;DHT22;2496;52.468;13.342;2024-03-06T12:58:50;8.80;99.90
4962;DHT22;2496;52.468;13.342;2024-03-06T13:01:18;9.00;99.90
4962;DHT22;2496;52.468;13.342;2024-03-06T13:03:45;8.90;99.90
4962;DHT22;2496;52.468;13.342;2024-03-06T13:06:12;8.80;99.90
4962;DHT22;2496;52.468;13.342;2024-03-06T13:08:39;8.80;99.90
4962;DHT22;2496;52.468;13.342;2024-03-06T13:11:06;8.60;99.90
4962;DHT22;2496;52.468;13.342;2024-03-06T13:13:36;8.60;99.90
4962;DHT22;2496;52.468;13.342;2024-03-06T13:16:03;8.40;99.90
4962;DHT22;2496;52.468;13.342;2024-03-06T13:18:31;8.30;99.90
4962;DHT22;2496;52.468;13.342;2024-03-06T13:20:58;8.30;99.90
4962;DHT22;2496;52.468;13.342;2024-03-06T13:23:26;8.40;99.90
4962;DHT22;2496;52.468;13.342;2024-03-06T13:25:53;8.40;99.90
4962;DHT22;2496;52.468;13.342;2024-03-06T13:28:20;8.40;99.90
4962;DHT22;2496;52.468;13.342;2024-03-06T13:30:49;8.40;99.90
4962;DHT22;2496;52.468;13.342;2024-03-06T13:33:17;8.30;99.90
4962;DHT22;2496;52.468;13.342;2024-03-06T13:35:44;8.40;99.90
4962;DHT22;2496;52.468;13.342;2024-03-06T13:38:11;8.40;99.90
4962;DHT22;2496;52.468;13.342;2024-03-06T13:40:38;8.40;99.90
4962;DHT22;2496;52.468;13.342;2024-03-06T13:43:05;8.40;99.90
4962;DHT22;2496;52.468;13.342;2024-03-06T13:45:33;8.30;99.90
4962;DHT22;2496;52.468;13.342;2024-03-06T13:48:01;8.30;99.90
4962;DHT22;2496;52.468;13.342;2024-03-06T13:50:28;8.40;99.90
4962;DHT22;2496;52.468;13.342;2024-03-06T13:52:56;8.40;99.90
4962;DHT22;2496;52.468;13.342;2024-03-06T13:55:23;8.40;99.90
4962;DHT22;2496;52.468;13.342;2024-03-06T13:57:50;8.50;99.90
4962;DHT22;2496;52.468;13.342;2024-03-06T14:00:18;8.50;99.90
4962;DHT22;2496;52.468;13.342;2024-03-06T14:02:45;8.40;99.90
4962;DHT22;2496;52.468;13.342;2024-03-06T14:05:14;8.30;99.90
4962;DHT22;2496;52.468;13.342;2024-03-06T14:07:41;8.40;99.90
4962;DHT22;2496;52.468;13.342;2024-03-06T14:10:09;8.20;99.90
4962;DHT22;2496;52.468;13.342;2024-03-06T14:12:37;8.20;99.90
4962;DHT22;2496;52.468;13.342;2024-03-06T14:15:05;8.20;99.90
4962;DHT22;2496;52.468;13.342;2024-03-06T14:17:34;8.10;99.90
4962;DHT22;2496;52.468;13.342;2024-03-06T14:20:01;8.10;99.90
4962;DHT22;2496;52.468;13.342;2024-03-06T14:22:30;8.10;99.90
4962;DHT22;2496;52.468;13.342;2024-03-06T14:24:57;8.10;99.90
4962;DHT22;2496;52.468;13.342;2024-03-06T14:27:24;8.10;99.90
4962;DHT22;2496;52.468;13.342;2024-03-06T14:29:51;8.00;99.90
4962;DHT22;2496;52.468;13.342;2024-03-06T14:32:19;8.10;99.90
4962;DHT22;2496;52.468;13.342;2024-03-06T14:34:46;8.10;99.90
4962;DHT22;2496;52.468;13.342;2024-03-06T14:37:14;8.00;99.90
4962;DHT22;2496;52.468;13.342;2024-03-06T14:39:42;8.00;99.90
4962;DHT22;2496;52.468;13.342;2024-03-06T14:42:09;8.00;99.90
4962;DHT22;2496;52.468;13.342;2024-03-06T14:44:36;8.00;99.90
4962;DHT22;2496;52.468;13.342;2024-03-06T14:47:04;8.00;99.90
4962;DHT22;2496;52.468;13.342;2024-03-06T14:49:33;8.00;99.90
4962;DHT22;2496;52.468;13.342;2024-03-06T14:52:00;8.10;99.90
4962;DHT22;2496;52.468;13.342;2024-03-06T14:54:27;8.20;99.90
4962;DHT22;2496;52.468;13.342;2024-03-06T14:56:56;8.20;99.90
4962;DHT22;2496;52.468;13.342;2024-03-06T14:59:23;8.10;99.90
4962;DHT22;2496;52.468;13.342;2024-03-06T15:01:50;8.00;99.90
4962;DHT22;2496;52.468;13.342;2024-03-06T15:04:17;7.90;99.90
4962;DHT22;2496;52.468;13.342;2024-03-06T15:06:45;8.00;99.90
4962;DHT22;2496;52.468;13.342;2024-03-06T15:09:12;8.00;99.90
4962;DHT22;2496;52.468;13.342;2024-03-06T15:11:41;8.00;99.90
4962;DHT22;2496;52.468;13.342;2024-03-06T15:14:09;8.00;99.90
4962;DHT22;2496;52.468;13.342;2024-03-06T15:16:37;8.00;99.90
4962;DHT22;2496;52.468;13.342;2024-03-06T15:19:05;8.10;99.90
4962;DHT22;2496;52.468;13.342;2024-03-06T15:21:32;8.10;99.90
4962;DHT22;2496;52.468;13.342;2024-03-06T15:23:59;8.10;99.90
4962;DHT22;2496;52.468;13.342;2024-03-06T15:26:26;8.00;99.90
4962;DHT22;2496;52.468;13.342;2024-03-06T15:28:53;8.00;99.90
4962;DHT22;2496;52.468;13.342;2024-03-06T15:31:22;8.00;99.90
4962;DHT22;2496;52.468;13.342;2024-03-06T15:33:49;8.00;99.90
4962;DHT22;2496;52.468;13.342;2024-03-06T15:36:17;8.10;99.90
4962;DHT22;2496;52.468;13.342;2024-03-06T15:38:44;8.00;99.90
4962;DHT22;2496;52.468;13.342;2024-03-06T15:41:11;8.00;99.90
4962;DHT22;2496;52.468;13.342;2024-03-06T15:43:40;8.00;99.90
4962;DHT22;2496;52.468;13.342;2024-03-06T15:46:07;8.00;99.90
4962;DHT22;2496;52.468;13.342;2024-03-06T15:48:35;8.00;99.90
4962;DHT22;2496;52.468;13.342;2024-03-06T15:51:02;8.00;99.90
4962;DHT22;2496;52.468;13.342;2024-03-06T15:53:29;7.90;99.90
4962;DHT22;2496;52.468;13.342;2024-03-06T15:55:57;8.00;99.90
4962;DHT22;2496;52.468;13.342;2024-03-06T15:58:24;8.00;99.90
4962;DHT22;2496;52.468;13.342;2024-03-06T16:00:51;7.90;99.90
4962;DHT22;2496;52.468;13.342;2024-03-06T16:03:18;7.90;99.90
4962;DHT22;2496;52.468;13.342;2024-03-06T16:05:47;7.90;99.90
4962;DHT22;2496;52.468;13.342;2024-03-06T16:08:14;7.90;99.90
4962;DHT22;2496;52.468;13.342;2024-03-06T16:10:41;7.90;99.90
4962;DHT22;2496;52.468;13.342;2024-03-06T16:13:08;7.80;99.90
4962;DHT22;2496;52.468;13.342;2024-03-06T16:15:35;7.90;99.90
4962;DHT22;2496;52.468;13.342;2024-03-06T16:18:03;7.80;99.90
4962;DHT22;2496;52.468;13.342;2024-03-06T16:20:30;7.90;99.90
4962;DHT22;2496;52.468;13.342;2024-03-06T16:22:59;7.80;99.90
4962;DHT22;2496;52.468;13.342;2024-03-06T16:25:26;7.80;99.90
4962;DHT22;2496;52.468;13.342;2024-03-06T16:27:53;7.70;99.90
4962;DHT22;2496;52.468;13.342;2024-03-06T16:30:20;7.80;99.90
4962;DHT22;2496;52.468;13.342;2024-03-06T16:32:49;7.70;99.90
4962;DHT22;2496;52.468;13.342;2024-03-06T16:35:16;7.70;99.90
4962;DHT22;2496;52.468;13.342;2024-03-06T16:37:43;7.70;99.90
4962;DHT22;2496;52.468;13.342;2024-03-06T16:40:12;7.70;99.90
4962;DHT22;2496;52.468;13.342;2024-03-06T16:42:39;7.60;99.90
4962;DHT22;2496;52.468;13.342;2024-03-06T16:45:06;7.60;99.90
4962;DHT22;2496;52.468;13.342;2024-03-06T16:47:35;7.70;99.90
4962;DHT22;2496;52.468;13.342;2024-03-06T16:50:03;7.70;99.90
4962;DHT22;2496;52.468;13.342;2024-03-06T16:52:32;7.60;99.90
4962;DHT22;2496;52.468;13.342;2024-03-06T16:54:59;7.60;99.90
4962;DHT22;2496;52.468;13.342;2024-03-06T16:57:28;7.60;99.90
4962;DHT22;2496;52.468;13.342;2024-03-06T16:59:55;7.60;99.90
4962;DHT22;2496;52.468;13.342;2024-03-06T17:02:22;7.60;99.90
4962;DHT22;2496;52.468;13.342;2024-03-06T17:04:49;7.70;99.90
4962;DHT22;2496;52.468;13.342;2024-03-06T17:07:16;7.70;99.90
4962;DHT22;2496;52.468;13.342;2024-03-06T17:09:43;7.70;99.90
4962;DHT22;2496;52.468;13.342;2024-03-06T17:12:10;7.70;99.90
4962;DHT22;2496;52.468;13.342;2024-03-06T17:14:38;7.60;99.90
4962;DHT22;2496;52.468;13.342;2024-03-06T17:17:05;7.60;99.90
4962;DHT22;2496;52.468;13.342;2024-03-06T17:19:32;7.60;99.90
4962;DHT22;2496;52.468;13.342;2024-03-06T17:22:03;7.70;99.90
4962;DHT22;2496;52.468;13.342;2024-03-06T17:24:30;7.70;99.90
4962;DHT22;2496;52.468;13.342;2024-03-06T17:26:57;7.70;99.90
4962;DHT22;2496;52.468;13.342;2024-03-06T17:29:24;7.70;99.90
4962;DHT22;2496;52.468;13.342;2024-03-06T17:31:53;7.60;99.90
4962;DHT22;2496;52.468;13.342;2024-03-06T17:34:20;7.60;99.90
4962;DHT22;2496;52.468;13.342;2024-03-06T17:36:47;7.60;99.90
4962;DHT22;2496;52.468;13.342;2024-03-06T17:39:14;7.60;99.90
4962;DHT22;2496;52.468;13.342;2024-03-06T17:41:42;7.60;99.90
4962;DHT22;2496;52.468;13.342;2024-03-06T17:44:09;7.60;99.90
4962;DHT22;2496;52.468;13.342;2024-03-06T17:46:36;7.60;99.90
4962;DHT22;2496;52.468;13.342;2024-03-06T17:49:05;7.60;99.90
4962;DHT22;2496;52.468;13.342;2024-03-06T17:51:33;7.60;99.90
4962;DHT22;2496;52.468;13.342;2024-03-06T17:54:02;7.60;99.90
4962;DHT22;2496;52.468;13.342;2024-03-06T17:56:29;7.60;99.90
4962;DHT22;2496;52.468;13.342;2024-03-06T17:58:56;7.60;99.90
4962;DHT22;2496;52.468;13.342;2024-03-06T18:01:23;7.60;99.90
4962;DHT22;2496;52.468;13.342;2024-03-06T18:03:50;7.60;99.90
4962;DHT22;2496;52.468;13.342;2024-03-06T18:06:19;7.60;99.90
4962;DHT22;2496;52.468;13.342;2024-03-06T18:08:46;7.60;99.90
4962;DHT22;2496;52.468;13.342;2024-03-06T18:11:13;7.50;99.90
4962;DHT22;2496;52.468;13.342;2024-03-06T18:13:43;7.50;99.90
4962;DHT22;2496;52.468;13.342;2024-03-06T18:16:10;7.50;99.90
4962;DHT22;2496;52.468;13.342;2024-03-06T18:18:37;7.50;99.90
4962;DHT22;2496;52.468;13.342;2024-03-06T18:21:05;7.50;99.90
4962;DHT22;2496;52.468;13.342;2024-03-06T18:23:35;7.50;99.90
4962;DHT22;2496;52.468;13.342;2024-03-06T18:26:02;7.50;99.90
4962;DHT22;2496;52.468;13.342;2024-03-06T18:28:29;7.40;99.90
4962;DHT22;2496;52.468;13.342;2024-03-06T18:30:56;7.40;99.90
4962;DHT22;2496;52.468;13.342;2024-03-06T18:33:23;7.40;99.90
4962;DHT22;2496;52.468;13.342;2024-03-06T18:35:50;7.40;99.90
4962;DHT22;2496;52.468;13.342;2024-03-06T18:38:17;7.30;99.90
4962;DHT22;2496;52.468;13.342;2024-03-06T18:40:45;7.30;99.90
4962;DHT22;2496;52.468;13.342;2024-03-06T18:43:12;7.40;99.90
4962;DHT22;2496;52.468;13.342;2024-03-06T18:45:39;7.40;99.90
4962;DHT22;2496;52.468;13.342;2024-03-06T18:48:06;7.40;99.90
4962;DHT22;2496;52.468;13.342;2024-03-06T18:50:33;7.40;99.90
4962;DHT22;2496;52.468;13.342;2024-03-06T18:53:00;7.40;99.90
4962;DHT22;2496;52.468;13.342;2024-03-06T18:55:31;7.40;99.90
4962;DHT22;2496;52.468;13.342;2024-03-06T18:57:59;7.40;99.90
4962;DHT22;2496;52.468;13.342;2024-03-06T19:00:26;7.40;99.90
4962;DHT22;2496;52.468;13.342;2024-03-06T19:02:56;7.40;99.90
4962;DHT22;2496;52.468;13.342;2024-03-06T19:05:23;7.40;99.90
4962;DHT22;2496;52.468;13.342;2024-03-06T19:07:50;7.30;99.90
4962;DHT22;2496;52.468;13.342;2024-03-06T19:10:18;7.30;99.90
4962;DHT22;2496;52.468;13.342;2024-03-06T19:12:47;7.30;99.90
4962;DHT22;2496;52.468;13.342;2024-03-06T19:15:16;7.30;99.90
4962;DHT22;2496;52.468;13.342;2024-03-06T19:17:44;7.30;99.90
4962;DHT22;2496;52.468;13.342;2024-03-06T19:20:15;7.30;99.90
4962;DHT22;2496;52.468;13.342;2024-03-06T19:22:42;7.30;99.90
4962;DHT22;2496;52.468;13.342;2024-03-06T19:25:10;7.30;99.90
4962;DHT22;2496;52.468;13.342;2024-03-06T19:27:38;7.20;99.90
4962;DHT22;2496;52.468;13.342;2024-03-06T19:30:06;7.20;99.90
4962;DHT22;2496;52.468;13.342;2024-03-06T19:32:37;7.20;99.90
4962;DHT22;2496;52.468;13.342;2024-03-06T19:35:05;7.20;99.90
4962;DHT22;2496;52.468;13.342;2024-03-06T19:37:33;7.20;99.90
4962;DHT22;2496;52.468;13.342;2024-03-06T19:40:00;7.20;99.90
4962;DHT22;2496;52.468;13.342;2024-03-06T19:42:32;7.20;99.90
4962;DHT22;2496;52.468;13.342;2024-03-06T19:44:59;7.20;99.90
4962;DHT22;2496;52.468;13.342;2024-03-06T19:47:27;7.20;99.90
4962;DHT22;2496;52.468;13.342;2024-03-06T19:49:55;7.20;99.90
4962;DHT22;2496;52.468;13.342;2024-03-06T19:52:22;7.20;99.90
4962;DHT22;2496;52.468;13.342;2024-03-06T19:54:49;7.20;99.90
4962;DHT22;2496;52.468;13.342;2024-03-06T19:57:17;7.20;99.90
4962;DHT22;2496;52.468;13.342;2024-03-06T19:59:44;7.20;99.90
4962;DHT22;2496;52.468;13.342;2024-03-06T20:02:11;7.20;99.90
4962;DHT22;2496;52.468;13.342;2024-03-06T20:04:38;7.20;99.90
4962;DHT22;2496;52.468;13.342;2024-03-06T20:07:07;7.20;99.90
4962;DHT22;2496;52.468;13.342;2024-03-06T20:09:34;7.20;99.90
4962;DHT22;2496;52.468;13.342;2024-03-06T20:12:01;7.20;99.90
4962;DHT22;2496;52.468;13.342;2024-03-06T20:14:30;7.20;99.90
4962;DHT22;2496;52.468;13.342;2024-03-06T20:16:58;7.20;99.90
4962;DHT22;2496;52.468;13.342;2024-03-06T20:19:25;7.20;99.90
4962;DHT22;2496;52.468;13.342;2024-03-06T20:21:52;7.10;99.90
4962;DHT22;2496;52.468;13.342;2024-03-06T20:24:20;7.10;99.90
4962;DHT22;2496;52.468;13.342;2024-03-06T20:26:49;7.00;99.90
4962;DHT22;2496;52.468;13.342;2024-03-06T20:29:17;7.00;99.90
4962;DHT22;2496;52.468;13.342;2024-03-06T20:31:44;7.00;99.90
4962;DHT22;2496;52.468;13.342;2024-03-06T20:34:11;7.10;99.90
4962;DHT22;2496;52.468;13.342;2024-03-06T20:36:39;7.10;99.90
4962;DHT22;2496;52.468;13.342;2024-03-06T20:39:06;7.10;99.90
4962;DHT22;2496;52.468;13.342;2024-03-06T20:41:42;7.10;99.90
4962;DHT22;2496;52.468;13.342;2024-03-06T20:44:09;7.00;99.90
4962;DHT22;2496;52.468;13.342;2024-03-06T20:46:36;7.00;99.90
4962;DHT22;2496;52.468;13.342;2024-03-06T20:49:03;7.00;99.90
4962;DHT22;2496;52.468;13.342;2024-03-06T20:51:32;6.90;99.90
4962;DHT22;2496;52.468;13.342;2024-03-06T20:54:00;7.00;99.90
4962;DHT22;2496;52.468;13.342;2024-03-06T20:56:29;6.90;99.90
4962;DHT22;2496;52.468;13.342;2024-03-06T20:59:00;6.90;99.90
4962;DHT22;2496;52.468;13.342;2024-03-06T21:01:27;7.00;99.90
4962;DHT22;2496;52.468;13.342;2024-03-06T21:03:54;7.10;99.90
4962;DHT22;2496;52.468;13.342;2024-03-06T21:06:22;7.00;99.90
4962;DHT22;2496;52.468;13.342;2024-03-06T21:08:51;7.00;99.90
4962;DHT22;2496;52.468;13.342;2024-03-06T21:11:18;7.10;99.90
4962;DHT22;2496;52.468;13.342;2024-03-06T21:13:46;7.00;99.90
4962;DHT22;2496;52.468;13.342;2024-03-06T21:16:17;7.00;99.90
4962;DHT22;2496;52.468;13.342;2024-03-06T21:18:45;7.00;99.90
4962;DHT22;2496;52.468;13.342;2024-03-06T21:21:13;7.00;99.90
4962;DHT22;2496;52.468;13.342;2024-03-06T21:23:42;7.00;99.90
4962;DHT22;2496;52.468;13.342;2024-03-06T21:26:09;7.00;99.90
4962;DHT22;2496;52.468;13.342;2024-03-06T21:28:38;7.00;99.90
4962;DHT22;2496;52.468;13.342;2024-03-06T21:31:08;7.10;99.90
4962;DHT22;2496;52.468;13.342;2024-03-06T21:33:36;7.00;99.90
4962;DHT22;2496;52.468;13.342;2024-03-06T21:36:04;7.00;99.90
4962;DHT22;2496;52.468;13.342;2024-03-06T21:38:32;7.00;99.90
4962;DHT22;2496;52.468;13.342;2024-03-06T21:40:59;7.10;99.90
4962;DHT22;2496;52.468;13.342;2024-03-06T21:43:27;7.10;99.90
4962;DHT22;2496;52.468;13.342;2024-03-06T21:45:55;7.10;99.90
4962;DHT22;2496;52.468;13.342;2024-03-06T21:48:22;7.00;99.90
4962;DHT22;2496;52.468;13.342;2024-03-06T21:50:51;7.00;99.90
4962;DHT22;2496;52.468;13.342;2024-03-06T21:53:18;6.90;99.90
4962;DHT22;2496;52.468;13.342;2024-03-06T21:55:45;6.90;99.90
4962;DHT22;2496;52.468;13.342;2024-03-06T21:58:12;6.90;99.90
4962;DHT22;2496;52.468;13.342;2024-03-06T22:00:39;6.90;99.90
4962;DHT22;2496;52.468;13.342;2024-03-06T22:03:07;6.90;99.90
4962;DHT22;2496;52.468;13.342;2024-03-06T22:05:35;6.90;99.90
4962;DHT22;2496;52.468;13.342;2024-03-06T22:08:04;6.90;99.90
4962;DHT22;2496;52.468;13.342;2024-03-06T22:10:34;6.80;99.90
4962;DHT22;2496;52.468;13.342;2024-03-06T22:13:01;6.80;99.90
4962;DHT22;2496;52.468;13.342;2024-03-06T22:15:28;6.80;99.90
4962;DHT22;2496;52.468;13.342;2024-03-06T22:17:55;6.90;99.90
4962;DHT22;2496;52.468;13.342;2024-03-06T22:20:23;6.80;99.90
4962;DHT22;2496;52.468;13.342;2024-03-06T22:22:50;6.80;99.90
4962;DHT22;2496;52.468;13.342;2024-03-06T22:25:18;6.80;99.90
4962;DHT22;2496;52.468;13.342;2024-03-06T22:27:46;6.80;99.90
4962;DHT22;2496;52.468;13.342;2024-03-06T22:30:14;6.80;99.90
4962;DHT22;2496;52.468;13.342;2024-03-06T22:32:41;6.80;99.90
4962;DHT22;2496;52.468;13.342;2024-03-06T22:35:09;6.80;99.90
4962;DHT22;2496;52.468;13.342;2024-03-06T22:37:37;6.90;99.90
4962;DHT22;2496;52.468;13.342;2024-03-06T22:40:05;6.90;99.90
4962;DHT22;2496;52.468;13.342;2024-03-06T22:42:36;6.80;99.90
4962;DHT22;2496;52.468;13.342;2024-03-06T22:45:03;6.80;99.90
4962;DHT22;2496;52.468;13.342;2024-03-06T22:47:32;6.80;99.90
4962;DHT22;2496;52.468;13.342;2024-03-06T22:50:01;6.80;99.90
4962;DHT22;2496;52.468;13.342;2024-03-06T22:52:28;6.80;99.90
4962;DHT22;2496;52.468;13.342;2024-03-06T22:54:55;6.70;99.90
4962;DHT22;2496;52.468;13.342;2024-03-06T22:57:22;6.70;99.90
4962;DHT22;2496;52.468;13.342;2024-03-06T22:59:50;6.70;99.90
4962;DHT22;2496;52.468;13.342;2024-03-06T23:02:17;6.70;99.90
4962;DHT22;2496;52.468;13.342;2024-03-06T23:04:45;6.70;99.90
4962;DHT22;2496;52.468;13.342;2024-03-06T23:07:13;6.70;99.90
4962;DHT22;2496;52.468;13.342;2024-03-06T23:09:40;6.70;99.90
4962;DHT22;2496;52.468;13.342;2024-03-06T23:12:07;6.80;99.90
4962;DHT22;2496;52.468;13.342;2024-03-06T23:14:35;6.80;99.90
4962;DHT22;2496;52.468;13.342;2024-03-06T23:17:07;6.70;99.90
4962;DHT22;2496;52.468;13.342;2024-03-06T23:19:34;6.70;99.90
4962;DHT22;2496;52.468;13.342;2024-03-06T23:22:01;6.70;99.90
4962;DHT22;2496;52.468;13.342;2024-03-06T23:24:28;6.80;99.90
4962;DHT22;2496;52.468;13.342;2024-03-06T23:26:55;6.80;99.90
4962;DHT22;2496;52.468;13.342;2024-03-06T23:29:22;6.70;99.90
4962;DHT22;2496;52.468;13.342;2024-03-06T23:31:49;6.80;99.90
4962;DHT22;2496;52.468;13.342;2024-03-06T23:34:17;6.80;99.90
4962;DHT22;2496;52.468;13.342;2024-03-06T23:36:47;6.70;99.90
4962;DHT22;2496;52.468;13.342;2024-03-06T23:39:15;6.70;99.90
4962;DHT22;2496;52.468;13.342;2024-03-06T23:41:44;6.70;99.90
4962;DHT22;2496;52.468;13.342;2024-03-06T23:44:11;6.70;99.90
4962;DHT22;2496;52.468;13.342;2024-03-06T23:46:38;6.60;99.90
4962;DHT22;2496;52.468;13.342;2024-03-06T23:49:05;6.60;99.90
4962;DHT22;2496;52.468;13.342;2024-03-06T23:51:33;6.70;99.90
4962;DHT22;2496;52.468;13.342;2024-03-06T23:54:00;6.60;99.90
4962;DHT22;2496;52.468;13.342;2024-03-06T23:56:27;6.60;99.90
4962;DHT22;2496;52.468;13.342;2024-03-06T23:58:55;6.60;99.90
